createdAt,value
2018-08-09T00:00:50.167Z,0
2018-08-09T00:01:52.263Z,0
2018-08-09T00:02:54.352Z,0
2018-08-09T00:03:56.451Z,0
2018-08-09T00:04:58.557Z,0
2018-08-09T00:06:00.945Z,0
2018-08-09T00:07:03.607Z,0
2018-08-09T00:08:05.724Z,0
2018-08-09T00:09:08.109Z,0
2018-08-09T00:10:10.206Z,0
2018-08-09T00:11:12.310Z,0
2018-08-09T00:12:14.397Z,0
2018-08-09T00:13:16.498Z,0
2018-08-09T00:14:18.595Z,0
2018-08-09T00:15:20.704Z,0
2018-08-09T00:16:22.785Z,0
2018-08-09T00:17:25.181Z,0
2018-08-09T00:18:27.578Z,0
2018-08-09T00:19:29.669Z,0
2018-08-09T00:20:32.071Z,0
2018-08-09T00:21:34.169Z,0
2018-08-09T00:22:36.556Z,0
2018-08-09T00:23:39.346Z,0
2018-08-09T00:24:41.747Z,0
2018-08-09T00:25:44.130Z,0
2018-08-09T00:26:46.235Z,0
2018-08-09T00:27:48.334Z,0
2018-08-09T00:28:50.422Z,0
2018-08-09T00:29:52.527Z,0
2018-08-09T00:30:55.013Z,0
2018-08-09T00:31:57.103Z,0
2018-08-09T00:32:59.201Z,0
2018-08-09T00:34:01.308Z,0
2018-08-09T00:35:03.696Z,0
2018-08-09T00:36:05.806Z,0
2018-08-09T00:37:07.901Z,0
2018-08-09T00:38:09.991Z,0
2018-08-09T00:39:12.083Z,0
2018-08-09T00:40:14.477Z,0
2018-08-09T00:41:16.562Z,0
2018-08-09T00:42:18.662Z,0
2018-08-09T00:43:20.759Z,0
2018-08-09T00:44:22.849Z,0
2018-08-09T00:45:24.961Z,0
2018-08-09T00:46:27.058Z,0
2018-08-09T00:47:29.545Z,0
2018-08-09T00:48:31.636Z,0
2018-08-09T00:49:34.054Z,0
2018-08-09T00:50:36.141Z,0
2018-08-09T00:51:38.241Z,0
2018-08-09T00:52:40.344Z,0
2018-08-09T00:53:42.431Z,0
2018-08-09T00:54:44.541Z,0
2018-08-09T00:55:46.641Z,0
2018-08-09T00:56:49.053Z,0
2018-08-09T00:57:51.133Z,0
2018-08-09T00:58:53.238Z,0
2018-08-09T00:59:55.724Z,0
2018-08-09T01:00:57.820Z,0
2018-08-09T01:01:59.934Z,0
2018-08-09T01:03:02.022Z,0
2018-08-09T01:04:04.117Z,0
2018-08-09T01:05:06.904Z,0
2018-08-09T01:06:09.001Z,0
2018-08-09T01:07:11.094Z,0
2018-08-09T01:08:13.188Z,0
2018-08-09T01:09:15.294Z,0
2018-08-09T01:10:17.393Z,0
2018-08-09T01:11:19.485Z,0
2018-08-09T01:12:21.585Z,0
2018-08-09T01:13:23.686Z,0
2018-08-09T01:14:25.770Z,0
2018-08-09T01:15:28.162Z,0
2018-08-09T01:16:30.261Z,0
2018-08-09T01:17:32.351Z,0
2018-08-09T01:18:34.461Z,0
2018-08-09T01:19:36.555Z,0
2018-08-09T01:20:38.651Z,0
2018-08-09T01:21:40.737Z,0
2018-08-09T01:22:42.849Z,0
2018-08-09T01:23:44.938Z,0
2018-08-09T01:24:47.036Z,0
2018-08-09T01:25:49.140Z,0
2018-08-09T01:26:51.222Z,0
2018-08-09T01:27:53.618Z,0
2018-08-09T01:28:55.721Z,0
2018-08-09T01:29:57.814Z,0
2018-08-09T01:30:59.898Z,0
2018-08-09T01:32:02.301Z,0
2018-08-09T01:33:04.708Z,0
2018-08-09T01:34:06.802Z,0
2018-08-09T01:35:09.306Z,0
2018-08-09T01:36:11.394Z,0
2018-08-09T01:37:13.780Z,0
2018-08-09T01:38:16.177Z,0
2018-08-09T01:39:18.270Z,0
2018-08-09T01:40:20.361Z,0
2018-08-09T01:41:22.752Z,0
2018-08-09T01:42:24.841Z,0
2018-08-09T01:43:27.226Z,0
2018-08-09T01:44:29.325Z,0
2018-08-09T01:45:31.424Z,0
2018-08-09T01:46:33.520Z,0
2018-08-09T01:47:35.604Z,0
2018-08-09T01:48:38.139Z,0
2018-08-09T01:49:40.531Z,0
2018-08-09T01:50:42.623Z,0
2018-08-09T01:51:44.736Z,0
2018-08-09T01:52:46.828Z,0
2018-08-09T01:53:48.923Z,0
2018-08-09T01:54:51.015Z,0
2018-08-09T01:55:53.421Z,0
2018-08-09T01:56:55.820Z,0
2018-08-09T01:57:58.299Z,0
2018-08-09T01:59:00.704Z,0
2018-08-09T02:00:03.174Z,0
2018-08-09T02:01:05.277Z,0
2018-08-09T02:02:07.762Z,0
2018-08-09T02:03:09.857Z,0
2018-08-09T02:04:11.935Z,0
2018-08-09T02:05:14.331Z,0
2018-08-09T02:06:16.456Z,0
2018-08-09T02:07:18.522Z,0
2018-08-09T02:08:20.626Z,0
2018-08-09T02:09:22.716Z,0
2018-08-09T02:10:24.809Z,0
2018-08-09T02:11:26.910Z,0
2018-08-09T02:12:29.001Z,0
2018-08-09T02:13:31.091Z,0
2018-08-09T02:14:33.194Z,0
2018-08-09T02:15:35.277Z,0
2018-08-09T02:16:37.759Z,0
2018-08-09T02:17:39.864Z,0
2018-08-09T02:18:41.959Z,0
2018-08-09T02:19:44.335Z,0
2018-08-09T02:20:46.446Z,0
2018-08-09T02:21:48.543Z,0
2018-08-09T02:22:51.225Z,0
2018-08-09T02:23:53.313Z,0
2018-08-09T02:24:55.424Z,0
2018-08-09T02:25:57.516Z,0
2018-08-09T02:26:59.619Z,0
2018-08-09T02:28:02.014Z,0
2018-08-09T02:29:04.125Z,0
2018-08-09T02:30:06.504Z,0
2018-08-09T02:31:09.209Z,0
2018-08-09T02:32:11.321Z,0
2018-08-09T02:33:13.407Z,0
2018-08-09T02:34:15.821Z,0
2018-08-09T02:35:17.918Z,0
2018-08-09T02:36:20.022Z,0
2018-08-09T02:37:23.188Z,0
2018-08-09T02:38:25.290Z,0
2018-08-09T02:39:27.771Z,0
2018-08-09T02:40:29.865Z,0
2018-08-09T02:41:31.974Z,0
2018-08-09T02:42:34.062Z,0
2018-08-09T02:43:36.165Z,0
2018-08-09T02:44:38.551Z,0
2018-08-09T02:45:40.654Z,0
2018-08-09T02:46:42.800Z,0
2018-08-09T02:47:45.137Z,0
2018-08-09T02:48:47.221Z,0
2018-08-09T02:49:49.611Z,0
2018-08-09T02:50:51.726Z,0
2018-08-09T02:51:54.109Z,0
2018-08-09T02:52:56.200Z,0
2018-08-09T02:53:59.277Z,0
2018-08-09T02:55:01.378Z,0
2018-08-09T02:56:03.781Z,0
2018-08-09T02:57:05.887Z,0
2018-08-09T02:58:07.970Z,0
2018-08-09T02:59:10.463Z,0
2018-08-09T03:00:12.867Z,0
2018-08-09T03:01:15.267Z,0
2018-08-09T03:02:17.366Z,0
2018-08-09T03:03:19.470Z,0
2018-08-09T03:04:21.566Z,0
2018-08-09T03:05:23.653Z,0
2018-08-09T03:06:25.769Z,0
2018-08-09T03:07:27.862Z,0
2018-08-09T03:08:29.971Z,0
2018-08-09T03:09:32.066Z,0
2018-08-09T03:10:34.185Z,0
2018-08-09T03:11:36.275Z,0
2018-08-09T03:12:38.387Z,0
2018-08-09T03:13:40.483Z,0
2018-08-09T03:14:42.565Z,0
2018-08-09T03:15:44.668Z,0
2018-08-09T03:16:46.762Z,0
2018-08-09T03:17:49.543Z,0
2018-08-09T03:18:51.638Z,0
2018-08-09T03:19:53.736Z,0
2018-08-09T03:20:56.130Z,0
2018-08-09T03:21:58.238Z,0
2018-08-09T03:23:00.337Z,0
2018-08-09T03:24:02.426Z,0
2018-08-09T03:25:04.920Z,0
2018-08-09T03:26:07.313Z,0
2018-08-09T03:27:09.396Z,0
2018-08-09T03:28:11.490Z,0
2018-08-09T03:29:13.588Z,0
2018-08-09T03:30:15.691Z,0
2018-08-09T03:31:18.183Z,0
2018-08-09T03:32:20.568Z,0
2018-08-09T03:33:22.658Z,0
2018-08-09T03:34:25.132Z,0
2018-08-09T03:35:27.240Z,0
2018-08-09T03:36:29.344Z,0
2018-08-09T03:37:31.423Z,0
2018-08-09T03:38:34.202Z,0
2018-08-09T03:39:36.297Z,0
2018-08-09T03:40:38.773Z,1
2018-08-09T03:41:40.865Z,1
2018-08-09T03:42:42.958Z,1
2018-08-09T03:43:45.071Z,1
2018-08-09T03:44:47.160Z,1
2018-08-09T03:45:49.256Z,1
2018-08-09T03:46:51.354Z,1
2018-08-09T03:47:53.437Z,1
2018-08-09T03:48:55.831Z,1
2018-08-09T03:49:57.925Z,2
2018-08-09T03:51:00.012Z,2
2018-08-09T03:52:02.502Z,2
2018-08-09T03:53:04.893Z,2
2018-08-09T03:54:06.991Z,2
2018-08-09T03:55:09.088Z,2
2018-08-09T03:56:11.181Z,3
2018-08-09T03:57:13.266Z,3
2018-08-09T03:58:15.778Z,3
2018-08-09T03:59:17.831Z,3
2018-08-09T04:00:19.913Z,3
2018-08-09T04:01:22.008Z,4
2018-08-09T04:02:24.109Z,4
2018-08-09T04:03:26.199Z,4
2018-08-09T04:04:28.303Z,4
2018-08-09T04:05:30.400Z,4
2018-08-09T04:06:32.495Z,5
2018-08-09T04:07:34.581Z,5
2018-08-09T04:08:37.072Z,5
2018-08-09T04:09:39.160Z,5
2018-08-09T04:10:41.558Z,5
2018-08-09T04:11:43.689Z,6
2018-08-09T04:12:46.130Z,6
2018-08-09T04:13:48.519Z,6
2018-08-09T04:14:50.615Z,6
2018-08-09T04:15:53.008Z,7
2018-08-09T04:16:55.479Z,7
2018-08-09T04:17:57.632Z,8
2018-08-09T04:18:59.678Z,8
2018-08-09T04:20:01.774Z,9
2018-08-09T04:21:04.253Z,9
2018-08-09T04:22:06.641Z,9
2018-08-09T04:23:08.737Z,9
2018-08-09T04:24:10.826Z,10
2018-08-09T04:25:12.921Z,10
2018-08-09T04:26:15.021Z,10
2018-08-09T04:27:17.112Z,10
2018-08-09T04:28:19.221Z,10
2018-08-09T04:29:21.316Z,10
2018-08-09T04:30:23.401Z,10
2018-08-09T04:31:25.496Z,11
2018-08-09T04:32:27.600Z,11
2018-08-09T04:33:29.682Z,11
2018-08-09T04:34:31.781Z,12
2018-08-09T04:35:33.879Z,12
2018-08-09T04:36:36.259Z,12
2018-08-09T04:37:38.753Z,12
2018-08-09T04:38:40.852Z,12
2018-08-09T04:39:43.257Z,12
2018-08-09T04:40:45.345Z,13
2018-08-09T04:41:47.453Z,13
2018-08-09T04:42:49.540Z,14
2018-08-09T04:43:51.637Z,14
2018-08-09T04:44:53.740Z,14
2018-08-09T04:45:56.119Z,15
2018-08-09T04:46:58.221Z,15
2018-08-09T04:48:00.315Z,15
2018-08-09T04:49:02.415Z,15
2018-08-09T04:50:04.499Z,15
2018-08-09T04:51:06.602Z,15
2018-08-09T04:52:08.695Z,15
2018-08-09T04:53:10.786Z,15
2018-08-09T04:54:13.185Z,15
2018-08-09T04:55:15.276Z,15
2018-08-09T04:56:17.372Z,15
2018-08-09T04:57:19.461Z,15
2018-08-09T04:58:22.345Z,15
2018-08-09T04:59:24.430Z,15
2018-08-09T05:00:26.522Z,16
2018-08-09T05:01:28.623Z,15
2018-08-09T05:02:30.720Z,15
2018-08-09T05:03:33.095Z,16
2018-08-09T05:04:35.194Z,16
2018-08-09T05:05:37.295Z,16
2018-08-09T05:06:39.377Z,17
2018-08-09T05:07:41.479Z,17
2018-08-09T05:08:43.576Z,17
2018-08-09T05:09:45.662Z,17
2018-08-09T05:10:48.062Z,17
2018-08-09T05:11:50.543Z,18
2018-08-09T05:12:52.930Z,18
2018-08-09T05:13:55.308Z,17
2018-08-09T05:14:57.417Z,18
2018-08-09T05:15:59.611Z,19
2018-08-09T05:17:02.378Z,19
2018-08-09T05:18:04.867Z,19
2018-08-09T05:19:06.948Z,21
2018-08-09T05:20:09.057Z,22
2018-08-09T05:21:11.155Z,23
2018-08-09T05:22:13.550Z,24
2018-08-09T05:23:15.721Z,25
2018-08-09T05:24:17.740Z,26
2018-08-09T05:25:19.833Z,26
2018-08-09T05:26:21.976Z,26
2018-08-09T05:27:24.037Z,24
2018-08-09T05:28:26.413Z,25
2018-08-09T05:29:28.507Z,26
2018-08-09T05:30:30.612Z,29
2018-08-09T05:31:32.706Z,30
2018-08-09T05:32:34.791Z,30
2018-08-09T05:33:36.883Z,29
2018-08-09T05:34:38.976Z,29
2018-08-09T05:35:41.363Z,30
2018-08-09T05:36:43.471Z,31
2018-08-09T05:37:46.247Z,30
2018-08-09T05:38:48.621Z,31
2018-08-09T05:39:50.732Z,33
2018-08-09T05:40:52.828Z,32
2018-08-09T05:41:54.921Z,33
2018-08-09T05:42:57.705Z,32
2018-08-09T05:43:59.787Z,34
2018-08-09T05:45:01.887Z,36
2018-08-09T05:46:03.984Z,37
2018-08-09T05:47:06.086Z,38
2018-08-09T05:48:08.168Z,39
2018-08-09T05:49:10.276Z,40
2018-08-09T05:50:12.371Z,42
2018-08-09T05:51:14.465Z,41
2018-08-09T05:52:16.573Z,40
2018-08-09T05:53:18.677Z,39
2018-08-09T05:54:21.154Z,38
2018-08-09T05:55:23.637Z,37
2018-08-09T05:56:25.751Z,38
2018-08-09T05:57:27.841Z,39
2018-08-09T05:58:30.432Z,40
2018-08-09T05:59:32.479Z,41
2018-08-09T06:00:34.564Z,41
2018-08-09T06:01:36.675Z,38
2018-08-09T06:02:38.773Z,40
2018-08-09T06:03:40.864Z,39
2018-08-09T06:04:42.962Z,36
2018-08-09T06:05:45.629Z,39
2018-08-09T06:06:47.936Z,41
2018-08-09T06:07:50.039Z,43
2018-08-09T06:08:52.137Z,45
2018-08-09T06:09:54.229Z,40
2018-08-09T06:10:56.325Z,38
2018-08-09T06:11:58.424Z,39
2018-08-09T06:13:00.921Z,39
2018-08-09T06:14:03.023Z,39
2018-08-09T06:15:05.407Z,41
2018-08-09T06:16:07.516Z,43
2018-08-09T06:17:09.604Z,45
2018-08-09T06:18:11.708Z,44
2018-08-09T06:19:13.807Z,45
2018-08-09T06:20:15.920Z,46
2018-08-09T06:21:18.001Z,44
2018-08-09T06:22:20.398Z,41
2018-08-09T06:23:22.494Z,42
2018-08-09T06:24:24.588Z,41
2018-08-09T06:25:26.697Z,46
2018-08-09T06:26:29.382Z,48
2018-08-09T06:27:31.367Z,51
2018-08-09T06:28:33.811Z,50
2018-08-09T06:29:35.900Z,45
2018-08-09T06:30:37.969Z,42
2018-08-09T06:31:40.072Z,41
2018-08-09T06:32:42.857Z,41
2018-08-09T06:33:44.933Z,42
2018-08-09T06:34:47.039Z,42
2018-08-09T06:35:49.140Z,43
2018-08-09T06:36:51.237Z,43
2018-08-09T06:37:53.341Z,44
2018-08-09T06:38:55.448Z,44
2018-08-09T06:39:57.549Z,45
2018-08-09T06:40:59.950Z,45
2018-08-09T06:42:02.055Z,45
2018-08-09T06:43:04.746Z,45
2018-08-09T06:44:07.139Z,44
2018-08-09T06:45:09.536Z,45
2018-08-09T06:46:11.625Z,45
2018-08-09T06:47:13.730Z,45
2018-08-09T06:48:15.828Z,45
2018-08-09T06:49:17.933Z,46
2018-08-09T06:50:20.018Z,46
2018-08-09T06:51:22.413Z,47
2018-08-09T06:52:24.512Z,47
2018-08-09T06:53:26.619Z,47
2018-08-09T06:54:28.708Z,47
2018-08-09T06:55:30.817Z,48
2018-08-09T06:56:32.917Z,48
2018-08-09T06:57:35.399Z,48
2018-08-09T06:58:37.520Z,48
2018-08-09T06:59:39.613Z,49
2018-08-09T07:00:41.716Z,49
2018-08-09T07:01:44.101Z,49
2018-08-09T07:02:46.217Z,50
2018-08-09T07:03:48.314Z,50
2018-08-09T07:04:50.429Z,51
2018-08-09T07:05:52.533Z,52
2018-08-09T07:06:54.628Z,52
2018-08-09T07:07:56.734Z,52
2018-08-09T07:08:58.882Z,52
2018-08-09T07:10:00.977Z,53
2018-08-09T07:11:03.086Z,53
2018-08-09T07:12:05.194Z,54
2018-08-09T07:13:07.292Z,54
2018-08-09T07:14:09.401Z,55
2018-08-09T07:15:11.889Z,55
2018-08-09T07:16:13.985Z,55
2018-08-09T07:17:16.086Z,56
2018-08-09T07:18:18.805Z,56
2018-08-09T07:19:21.282Z,57
2018-08-09T07:20:23.494Z,57
2018-08-09T07:21:25.775Z,59
2018-08-09T07:22:28.550Z,58
2018-08-09T07:23:30.672Z,59
2018-08-09T07:24:32.766Z,59
2018-08-09T07:25:34.874Z,59
2018-08-09T07:26:36.965Z,59
2018-08-09T07:27:39.071Z,59
2018-08-09T07:28:41.177Z,59
2018-08-09T07:29:43.280Z,59
2018-08-09T07:30:45.375Z,59
2018-08-09T07:31:47.884Z,59
2018-08-09T07:32:49.980Z,60
2018-08-09T07:33:52.664Z,60
2018-08-09T07:34:54.679Z,60
2018-08-09T07:35:57.092Z,60
2018-08-09T07:36:59.189Z,60
2018-08-09T07:38:01.305Z,61
2018-08-09T07:39:03.803Z,62
2018-08-09T07:40:05.893Z,62
2018-08-09T07:41:08.006Z,62
2018-08-09T07:42:10.109Z,63
2018-08-09T07:43:12.202Z,63
2018-08-09T07:44:14.325Z,64
2018-08-09T07:45:16.437Z,64
2018-08-09T07:46:18.537Z,65
2018-08-09T07:47:20.947Z,65
2018-08-09T07:48:23.088Z,65
2018-08-09T07:49:25.480Z,66
2018-08-09T07:50:27.853Z,66
2018-08-09T07:51:29.957Z,67
2018-08-09T07:52:32.044Z,67
2018-08-09T07:53:34.151Z,67
2018-08-09T07:54:36.539Z,68
2018-08-09T07:55:38.634Z,69
2018-08-09T07:56:40.749Z,69
2018-08-09T07:57:43.237Z,70
2018-08-09T07:58:45.340Z,71
2018-08-09T07:59:47.434Z,71
2018-08-09T08:00:49.558Z,72
2018-08-09T08:01:51.655Z,71
2018-08-09T08:02:53.758Z,72
2018-08-09T08:03:56.261Z,72
2018-08-09T08:04:58.357Z,73
2018-08-09T08:06:00.471Z,75
2018-08-09T08:07:02.575Z,75
2018-08-09T08:08:04.688Z,76
2018-08-09T08:09:06.777Z,77
2018-08-09T08:10:08.891Z,78
2018-08-09T08:11:10.995Z,79
2018-08-09T08:12:13.098Z,79
2018-08-09T08:13:15.220Z,80
2018-08-09T08:14:17.312Z,80
2018-08-09T08:15:19.716Z,81
2018-08-09T08:16:21.830Z,95
2018-08-09T08:17:23.934Z,159
2018-08-09T08:18:26.035Z,213
2018-08-09T08:19:28.141Z,202
2018-08-09T08:20:30.529Z,198
2018-08-09T08:21:32.633Z,202
2018-08-09T08:22:35.135Z,202
2018-08-09T08:23:37.552Z,189
2018-08-09T08:24:39.648Z,148
2018-08-09T08:25:41.767Z,120
2018-08-09T08:26:43.925Z,143
2018-08-09T08:27:45.975Z,208
2018-08-09T08:28:48.087Z,218
2018-08-09T08:29:50.177Z,221
2018-08-09T08:30:52.283Z,235
2018-08-09T08:31:54.391Z,231
2018-08-09T08:32:56.503Z,222
2018-08-09T08:33:58.596Z,232
2018-08-09T08:35:01.418Z,232
2018-08-09T08:36:03.524Z,238
2018-08-09T08:37:05.626Z,244
2018-08-09T08:38:07.742Z,245
2018-08-09T08:39:09.844Z,247
2018-08-09T08:40:11.947Z,258
2018-08-09T08:41:14.054Z,248
2018-08-09T08:42:16.487Z,241
2018-08-09T08:43:18.586Z,240
2018-08-09T08:44:20.972Z,251
2018-08-09T08:45:23.468Z,255
2018-08-09T08:46:25.587Z,256
2018-08-09T08:47:27.753Z,250
2018-08-09T08:48:29.793Z,252
2018-08-09T08:49:31.909Z,254
2018-08-09T08:50:34.018Z,266
2018-08-09T08:51:36.120Z,275
2018-08-09T08:52:38.227Z,275
2018-08-09T08:53:40.332Z,283
2018-08-09T08:54:42.452Z,287
2018-08-09T08:55:44.554Z,295
2018-08-09T08:56:46.671Z,285
2018-08-09T08:57:48.761Z,280
2018-08-09T08:58:50.881Z,276
2018-08-09T08:59:52.983Z,268
2018-08-09T09:00:55.499Z,271
2018-08-09T09:01:57.555Z,276
2018-08-09T09:02:59.647Z,276
2018-08-09T09:04:02.375Z,267
2018-08-09T09:05:04.881Z,262
2018-08-09T09:06:06.964Z,261
2018-08-09T09:07:09.062Z,250
2018-08-09T09:08:11.176Z,256
2018-08-09T09:09:13.287Z,266
2018-08-09T09:10:15.388Z,273
2018-08-09T09:11:17.506Z,280
2018-08-09T09:12:19.606Z,289
2018-08-09T09:13:21.719Z,278
2018-08-09T09:14:23.825Z,283
2018-08-09T09:15:26.244Z,289
2018-08-09T09:16:28.345Z,287
2018-08-09T09:17:30.455Z,276
2018-08-09T09:18:32.566Z,282
2018-08-09T09:19:34.665Z,286
2018-08-09T09:20:36.781Z,289
2018-08-09T09:21:39.289Z,296
2018-08-09T09:22:41.704Z,291
2018-08-09T09:23:43.815Z,285
2018-08-09T09:24:46.491Z,276
2018-08-09T09:25:48.601Z,284
2018-08-09T09:26:51.027Z,298
2018-08-09T09:27:53.109Z,307
2018-08-09T09:28:55.227Z,307
2018-08-09T09:29:57.339Z,314
2018-08-09T09:30:59.444Z,322
2018-08-09T09:32:01.565Z,323
2018-08-09T09:33:03.680Z,340
2018-08-09T09:34:05.784Z,339
2018-08-09T09:35:07.960Z,341
2018-08-09T09:36:10.001Z,369
2018-08-09T09:37:12.118Z,365
2018-08-09T09:38:14.235Z,344
2018-08-09T09:39:16.353Z,352
2018-08-09T09:40:18.452Z,354
2018-08-09T09:41:20.929Z,336
2018-08-09T09:42:23.009Z,334
2018-08-09T09:43:25.115Z,326
2018-08-09T09:44:27.244Z,315
2018-08-09T09:45:29.346Z,312
2018-08-09T09:46:31.460Z,310
2018-08-09T09:47:33.853Z,296
2018-08-09T09:48:35.981Z,293
2018-08-09T09:49:38.508Z,294
2018-08-09T09:50:40.624Z,297
2018-08-09T09:51:43.046Z,319
2018-08-09T09:52:45.148Z,331
2018-08-09T09:53:47.579Z,337
2018-08-09T09:54:50.114Z,343
2018-08-09T09:55:52.549Z,352
2018-08-09T09:56:55.304Z,353
2018-08-09T09:57:57.432Z,347
2018-08-09T09:58:59.857Z,346
2018-08-09T10:00:01.963Z,351
2018-08-09T10:01:04.472Z,352
2018-08-09T10:02:06.683Z,345
2018-08-09T10:03:08.711Z,351
2018-08-09T10:04:10.817Z,349
2018-08-09T10:05:12.948Z,338
2018-08-09T10:06:15.060Z,334
2018-08-09T10:07:17.193Z,338
2018-08-09T10:08:19.298Z,342
2018-08-09T10:09:21.399Z,347
2018-08-09T10:10:23.977Z,349
2018-08-09T10:11:26.352Z,356
2018-08-09T10:12:28.476Z,368
2018-08-09T10:13:30.577Z,362
2018-08-09T10:14:32.700Z,373
2018-08-09T10:15:34.814Z,363
2018-08-09T10:16:36.921Z,359
2018-08-09T10:17:39.059Z,361
2018-08-09T10:18:41.163Z,351
2018-08-09T10:19:43.280Z,374
2018-08-09T10:20:45.387Z,375
2018-08-09T10:21:47.517Z,376
2018-08-09T10:22:50.304Z,371
2018-08-09T10:23:53.109Z,391
2018-08-09T10:24:55.229Z,390
2018-08-09T10:25:57.331Z,421
2018-08-09T10:26:59.462Z,405
2018-08-09T10:28:01.588Z,393
2018-08-09T10:29:04.082Z,407
2018-08-09T10:30:06.198Z,407
2018-08-09T10:31:08.324Z,395
2018-08-09T10:32:10.441Z,378
2018-08-09T10:33:12.859Z,391
2018-08-09T10:34:14.970Z,408
2018-08-09T10:35:17.080Z,425
2018-08-09T10:36:19.585Z,401
2018-08-09T10:37:22.296Z,407
2018-08-09T10:38:24.401Z,398
2018-08-09T10:39:26.523Z,420
2018-08-09T10:40:28.645Z,413
2018-08-09T10:41:31.053Z,394
2018-08-09T10:42:33.187Z,415
2018-08-09T10:43:35.300Z,405
2018-08-09T10:44:37.813Z,418
2018-08-09T10:45:39.924Z,394
2018-08-09T10:46:42.345Z,411
2018-08-09T10:47:44.846Z,393
2018-08-09T10:48:46.964Z,380
2018-08-09T10:49:49.382Z,376
2018-08-09T10:50:52.158Z,376
2018-08-09T10:51:54.284Z,374
2018-08-09T10:52:56.401Z,377
2018-08-09T10:53:58.526Z,411
2018-08-09T10:55:00.636Z,433
2018-08-09T10:56:02.766Z,413
2018-08-09T10:57:04.880Z,400
2018-08-09T10:58:07.286Z,396
2018-08-09T10:59:09.418Z,389
2018-08-09T11:00:11.839Z,406
2018-08-09T11:01:13.955Z,414
2018-08-09T11:02:16.087Z,418
2018-08-09T11:03:18.201Z,391
2018-08-09T11:04:20.313Z,407
2018-08-09T11:05:22.456Z,386
2018-08-09T11:06:24.567Z,369
2018-08-09T11:07:26.684Z,347
2018-08-09T11:08:29.496Z,350
2018-08-09T11:09:31.904Z,372
2018-08-09T11:10:34.012Z,376
2018-08-09T11:11:36.145Z,390
2018-08-09T11:12:38.271Z,381
2018-08-09T11:13:40.386Z,385
2018-08-09T11:14:42.500Z,390
2018-08-09T11:15:44.633Z,397
2018-08-09T11:16:46.752Z,409
2018-08-09T11:17:48.866Z,411
2018-08-09T11:18:50.976Z,423
2018-08-09T11:19:53.108Z,406
2018-08-09T11:20:55.222Z,405
2018-08-09T11:21:57.341Z,418
2018-08-09T11:22:59.466Z,417
2018-08-09T11:24:01.576Z,442
2018-08-09T11:25:03.702Z,447
2018-08-09T11:26:06.212Z,430
2018-08-09T11:27:08.339Z,403
2018-08-09T11:28:10.456Z,349
2018-08-09T11:29:12.586Z,348
2018-08-09T11:30:14.996Z,359
2018-08-09T11:31:17.120Z,400
2018-08-09T11:32:19.562Z,423
2018-08-09T11:33:21.676Z,439
2018-08-09T11:34:23.794Z,434
2018-08-09T11:35:25.918Z,448
2018-08-09T11:36:28.034Z,472
2018-08-09T11:37:30.142Z,390
2018-08-09T11:38:32.556Z,293
2018-08-09T11:39:34.667Z,225
2018-08-09T11:40:36.812Z,260
2018-08-09T11:41:38.943Z,239
2018-08-09T11:42:41.062Z,156
2018-08-09T11:43:43.175Z,142
2018-08-09T11:44:45.317Z,140
2018-08-09T11:45:47.438Z,143
2018-08-09T11:46:49.945Z,145
2018-08-09T11:47:52.074Z,146
2018-08-09T11:48:54.210Z,149
2018-08-09T11:49:56.331Z,148
2018-08-09T11:50:58.447Z,159
2018-08-09T11:52:00.577Z,154
2018-08-09T11:53:02.689Z,155
2018-08-09T11:54:04.845Z,222
2018-08-09T11:55:06.960Z,230
2018-08-09T11:56:09.118Z,283
2018-08-09T11:57:11.745Z,157
2018-08-09T11:58:13.870Z,135
2018-08-09T11:59:15.990Z,125
2018-08-09T12:00:18.406Z,122
2018-08-09T12:01:20.548Z,120
2018-08-09T12:02:22.644Z,124
2018-08-09T12:03:25.221Z,126
2018-08-09T12:04:27.607Z,122
2018-08-09T12:05:29.997Z,114
2018-08-09T12:06:32.124Z,112
2018-08-09T12:07:34.952Z,113
2018-08-09T12:08:37.080Z,120
2018-08-09T12:09:39.524Z,123
2018-08-09T12:10:41.632Z,123
2018-08-09T12:11:43.750Z,127
2018-08-09T12:12:45.859Z,145
2018-08-09T12:13:48.576Z,226
2018-08-09T12:14:51.035Z,185
2018-08-09T12:15:53.132Z,194
2018-08-09T12:16:55.240Z,181
2018-08-09T12:17:57.373Z,295
2018-08-09T12:18:59.489Z,379
2018-08-09T12:20:01.894Z,444
2018-08-09T12:21:04.127Z,439
2018-08-09T12:22:06.134Z,422
2018-08-09T12:23:08.252Z,404
2018-08-09T12:24:10.386Z,412
2018-08-09T12:25:13.120Z,459
2018-08-09T12:26:15.222Z,478
2018-08-09T12:27:17.354Z,108
2018-08-09T12:28:19.472Z,102
2018-08-09T12:29:21.605Z,100
2018-08-09T12:30:23.744Z,117
2018-08-09T12:31:25.844Z,140
2018-08-09T12:32:28.346Z,374
2018-08-09T12:33:30.768Z,361
2018-08-09T12:34:32.869Z,182
2018-08-09T12:35:34.995Z,415
2018-08-09T12:36:37.167Z,444
2018-08-09T12:37:39.227Z,444
2018-08-09T12:38:41.360Z,433
2018-08-09T12:39:43.469Z,416
2018-08-09T12:40:45.884Z,401
2018-08-09T12:41:48.018Z,302
2018-08-09T12:42:50.444Z,379
2018-08-09T12:43:52.558Z,367
2018-08-09T12:44:54.678Z,341
2018-08-09T12:45:56.789Z,326
2018-08-09T12:46:58.914Z,321
2018-08-09T12:48:01.039Z,127
2018-08-09T12:49:03.757Z,131
2018-08-09T12:50:06.256Z,114
2018-08-09T12:51:08.673Z,117
2018-08-09T12:52:10.787Z,131
2018-08-09T12:53:12.908Z,355
2018-08-09T12:54:15.039Z,262
2018-08-09T12:55:17.137Z,122
2018-08-09T12:56:19.542Z,103
2018-08-09T12:57:21.654Z,110
2018-08-09T12:58:23.782Z,141
2018-08-09T12:59:25.892Z,229
2018-08-09T13:00:28.011Z,330
2018-08-09T13:01:30.127Z,333
2018-08-09T13:02:32.237Z,186
2018-08-09T13:03:34.363Z,186
2018-08-09T13:04:36.476Z,198
2018-08-09T13:05:38.591Z,283
2018-08-09T13:06:40.704Z,136
2018-08-09T13:07:43.122Z,127
2018-08-09T13:08:45.235Z,130
2018-08-09T13:09:47.351Z,318
2018-08-09T13:10:49.526Z,356
2018-08-09T13:11:51.568Z,383
2018-08-09T13:12:53.695Z,390
2018-08-09T13:13:55.817Z,376
2018-08-09T13:14:57.925Z,196
2018-08-09T13:16:00.047Z,341
2018-08-09T13:17:02.584Z,220
2018-08-09T13:18:05.073Z,194
2018-08-09T13:19:07.199Z,130
2018-08-09T13:20:09.319Z,127
2018-08-09T13:21:11.426Z,256
2018-08-09T13:22:13.542Z,115
2018-08-09T13:23:15.662Z,112
2018-08-09T13:24:17.767Z,124
2018-08-09T13:25:19.887Z,125
2018-08-09T13:26:22.001Z,121
2018-08-09T13:27:24.109Z,179
2018-08-09T13:28:26.246Z,321
2018-08-09T13:29:28.361Z,331
2018-08-09T13:30:30.865Z,332
2018-08-09T13:31:32.968Z,286
2018-08-09T13:32:35.099Z,324
2018-08-09T13:33:37.260Z,334
2018-08-09T13:34:39.326Z,350
2018-08-09T13:35:41.447Z,360
2018-08-09T13:36:43.551Z,353
2018-08-09T13:37:45.968Z,325
2018-08-09T13:38:48.085Z,332
2018-08-09T13:39:50.202Z,337
2018-08-09T13:40:52.305Z,330
2018-08-09T13:41:54.431Z,330
2018-08-09T13:42:56.548Z,324
2018-08-09T13:43:58.662Z,316
2018-08-09T13:45:00.796Z,299
2018-08-09T13:46:03.200Z,271
2018-08-09T13:47:05.315Z,148
2018-08-09T13:48:07.425Z,99
2018-08-09T13:49:09.547Z,87
2018-08-09T13:50:12.269Z,92
2018-08-09T13:51:14.379Z,131
2018-08-09T13:52:16.505Z,154
2018-08-09T13:53:18.631Z,286
2018-08-09T13:54:20.741Z,314
2018-08-09T13:55:22.861Z,301
2018-08-09T13:56:24.986Z,321
2018-08-09T13:57:27.092Z,313
2018-08-09T13:58:29.271Z,258
2018-08-09T13:59:31.333Z,329
2018-08-09T14:00:33.732Z,336
2018-08-09T14:01:36.163Z,324
2018-08-09T14:02:38.279Z,320
2018-08-09T14:03:40.783Z,329
2018-08-09T14:04:42.904Z,328
2018-08-09T14:05:45.030Z,333
2018-08-09T14:06:47.139Z,305
2018-08-09T14:07:49.259Z,298
2018-08-09T14:08:51.387Z,303
2018-08-09T14:09:53.494Z,316
2018-08-09T14:10:55.625Z,306
2018-08-09T14:11:57.747Z,296
2018-08-09T14:12:59.869Z,286
2018-08-09T14:14:02.263Z,285
2018-08-09T14:15:04.551Z,287
2018-08-09T14:16:06.989Z,292
2018-08-09T14:17:09.091Z,287
2018-08-09T14:18:11.227Z,280
2018-08-09T14:19:13.627Z,285
2018-08-09T14:20:15.751Z,282
2018-08-09T14:21:17.882Z,292
2018-08-09T14:22:20.298Z,288
2018-08-09T14:23:22.409Z,288
2018-08-09T14:24:24.543Z,276
2018-08-09T14:25:26.651Z,257
2018-08-09T14:26:28.777Z,150
2018-08-09T14:27:30.913Z,126
2018-08-09T14:28:33.338Z,114
2018-08-09T14:29:35.452Z,102
2018-08-09T14:30:37.895Z,94
2018-08-09T14:31:40.012Z,86
2018-08-09T14:32:42.128Z,88
2018-08-09T14:33:44.254Z,97
2018-08-09T14:34:46.362Z,116
2018-08-09T14:35:48.484Z,133
2018-08-09T14:36:50.602Z,152
2018-08-09T14:37:52.731Z,197
2018-08-09T14:38:54.834Z,139
2018-08-09T14:39:56.964Z,129
2018-08-09T14:40:59.081Z,126
2018-08-09T14:42:01.216Z,135
2018-08-09T14:43:03.725Z,148